sensor_id;sensor_type;location;lat;lon;timestamp;P1;durP1;ratioP1;P2;durP2;ratioP2
479;SDS011;226;48.606;9.096;2023-02-15T00:02:05;11.20;;;10.10;;
479;SDS011;226;48.606;9.096;2023-02-15T00:04:33;5.57;;;5.07;;
479;SDS011;226;48.606;9.096;2023-02-15T00:07:14;6.53;;;5.67;;
479;SDS011;226;48.606;9.096;2023-02-15T00:09:44;11.17;;;6.73;;
479;SDS011;226;48.606;9.096;2023-02-15T00:12:15;12.77;;;6.30;;
479;SDS011;226;48.606;9.096;2023-02-15T00:14:43;12.00;;;8.87;;
479;SDS011;226;48.606;9.096;2023-02-15T00:17:11;7.03;;;5.30;;
479;SDS011;226;48.606;9.096;2023-02-15T00:19:39;7.43;;;5.30;;
479;SDS011;226;48.606;9.096;2023-02-15T00:22:08;15.40;;;8.20;;
479;SDS011;226;48.606;9.096;2023-02-15T00:24:36;9.77;;;7.90;;
479;SDS011;226;48.606;9.096;2023-02-15T00:27:04;4.73;;;4.43;;
479;SDS011;226;48.606;9.096;2023-02-15T00:29:33;29.13;;;8.40;;
479;SDS011;226;48.606;9.096;2023-02-15T00:32:02;8.33;;;7.73;;
479;SDS011;226;48.606;9.096;2023-02-15T00:34:30;8.40;;;5.77;;
479;SDS011;226;48.606;9.096;2023-02-15T00:36:58;4.87;;;4.47;;
479;SDS011;226;48.606;9.096;2023-02-15T00:39:26;7.13;;;5.43;;
479;SDS011;226;48.606;9.096;2023-02-15T00:41:55;8.00;;;7.27;;
479;SDS011;226;48.606;9.096;2023-02-15T00:44:23;5.40;;;4.90;;
479;SDS011;226;48.606;9.096;2023-02-15T00:46:52;23.07;;;6.70;;
479;SDS011;226;48.606;9.096;2023-02-15T00:49:20;13.73;;;5.83;;
479;SDS011;226;48.606;9.096;2023-02-15T00:51:48;6.53;;;5.97;;
479;SDS011;226;48.606;9.096;2023-02-15T00:54:17;34.20;;;8.13;;
479;SDS011;226;48.606;9.096;2023-02-15T00:56:45;4.30;;;4.10;;
479;SDS011;226;48.606;9.096;2023-02-15T00:59:13;5.23;;;3.73;;
479;SDS011;226;48.606;9.096;2023-02-15T01:01:41;6.17;;;5.67;;
479;SDS011;226;48.606;9.096;2023-02-15T01:04:10;5.43;;;5.10;;
479;SDS011;226;48.606;9.096;2023-02-15T01:06:39;9.60;;;8.40;;
479;SDS011;226;48.606;9.096;2023-02-15T01:09:07;3.67;;;3.37;;
479;SDS011;226;48.606;9.096;2023-02-15T01:11:35;8.40;;;6.27;;
479;SDS011;226;48.606;9.096;2023-02-15T01:14:03;5.57;;;4.90;;
479;SDS011;226;48.606;9.096;2023-02-15T01:16:31;6.70;;;6.20;;
479;SDS011;226;48.606;9.096;2023-02-15T01:19:00;7.50;;;7.00;;
479;SDS011;226;48.606;9.096;2023-02-15T01:21:30;12.83;;;6.70;;
479;SDS011;226;48.606;9.096;2023-02-15T01:24:00;12.83;;;6.17;;
479;SDS011;226;48.606;9.096;2023-02-15T01:26:28;20.03;;;7.97;;
479;SDS011;226;48.606;9.096;2023-02-15T01:28:57;10.07;;;8.13;;
479;SDS011;226;48.606;9.096;2023-02-15T01:31:25;4.20;;;1.73;;
479;SDS011;226;48.606;9.096;2023-02-15T01:33:53;7.43;;;6.50;;
479;SDS011;226;48.606;9.096;2023-02-15T01:36:21;17.37;;;9.40;;
479;SDS011;226;48.606;9.096;2023-02-15T01:38:51;8.30;;;7.33;;
479;SDS011;226;48.606;9.096;2023-02-15T01:41:19;6.37;;;5.90;;
479;SDS011;226;48.606;9.096;2023-02-15T01:43:50;13.03;;;8.13;;
479;SDS011;226;48.606;9.096;2023-02-15T01:46:20;7.80;;;7.07;;
479;SDS011;226;48.606;9.096;2023-02-15T01:48:52;5.57;;;4.87;;
479;SDS011;226;48.606;9.096;2023-02-15T01:51:24;9.10;;;7.87;;
479;SDS011;226;48.606;9.096;2023-02-15T01:53:59;9.07;;;8.27;;
479;SDS011;226;48.606;9.096;2023-02-15T01:56:31;8.80;;;6.27;;
479;SDS011;226;48.606;9.096;2023-02-15T01:59:02;6.37;;;6.03;;
479;SDS011;226;48.606;9.096;2023-02-15T02:01:35;7.30;;;6.60;;
479;SDS011;226;48.606;9.096;2023-02-15T02:04:05;6.70;;;4.53;;
479;SDS011;226;48.606;9.096;2023-02-15T02:06:38;11.50;;;5.43;;
479;SDS011;226;48.606;9.096;2023-02-15T02:09:08;3.40;;;3.30;;
479;SDS011;226;48.606;9.096;2023-02-15T02:11:36;5.83;;;5.43;;
479;SDS011;226;48.606;9.096;2023-02-15T02:14:07;10.87;;;8.27;;
479;SDS011;226;48.606;9.096;2023-02-15T02:16:38;6.37;;;5.03;;
479;SDS011;226;48.606;9.096;2023-02-15T02:19:31;9.10;;;4.70;;
479;SDS011;226;48.606;9.096;2023-02-15T02:22:39;6.33;;;5.70;;
479;SDS011;226;48.606;9.096;2023-02-15T02:25:30;7.57;;;6.87;;
479;SDS011;226;48.606;9.096;2023-02-15T02:28:28;5.07;;;4.87;;
479;SDS011;226;48.606;9.096;2023-02-15T02:31:31;7.17;;;5.70;;
479;SDS011;226;48.606;9.096;2023-02-15T02:34:29;10.93;;;7.47;;
479;SDS011;226;48.606;9.096;2023-02-15T02:36:59;4.00;;;3.70;;
479;SDS011;226;48.606;9.096;2023-02-15T02:39:37;4.77;;;4.37;;
479;SDS011;226;48.606;9.096;2023-02-15T02:42:17;11.20;;;4.97;;
479;SDS011;226;48.606;9.096;2023-02-15T02:44:51;5.27;;;4.97;;
479;SDS011;226;48.606;9.096;2023-02-15T02:47:26;5.77;;;5.47;;
479;SDS011;226;48.606;9.096;2023-02-15T02:50:01;8.37;;;7.67;;
479;SDS011;226;48.606;9.096;2023-02-15T02:52:34;5.53;;;5.00;;
479;SDS011;226;48.606;9.096;2023-02-15T02:55:06;6.10;;;5.73;;
479;SDS011;226;48.606;9.096;2023-02-15T02:57:38;21.93;;;7.73;;
479;SDS011;226;48.606;9.096;2023-02-15T03:00:10;5.33;;;4.80;;
479;SDS011;226;48.606;9.096;2023-02-15T03:02:42;5.37;;;5.07;;
479;SDS011;226;48.606;9.096;2023-02-15T03:05:15;8.20;;;6.97;;
479;SDS011;226;48.606;9.096;2023-02-15T03:07:46;5.53;;;4.97;;
479;SDS011;226;48.606;9.096;2023-02-15T03:10:17;4.73;;;4.40;;
479;SDS011;226;48.606;9.096;2023-02-15T03:12:49;6.20;;;5.77;;
479;SDS011;226;48.606;9.096;2023-02-15T03:15:19;5.73;;;5.53;;
479;SDS011;226;48.606;9.096;2023-02-15T03:17:50;5.70;;;5.23;;
479;SDS011;226;48.606;9.096;2023-02-15T03:20:24;10.20;;;6.87;;
479;SDS011;226;48.606;9.096;2023-02-15T03:22:56;5.30;;;3.43;;
479;SDS011;226;48.606;9.096;2023-02-15T03:25:30;8.00;;;7.50;;
479;SDS011;226;48.606;9.096;2023-02-15T03:28:03;9.23;;;8.37;;
479;SDS011;226;48.606;9.096;2023-02-15T03:30:34;5.53;;;5.13;;
479;SDS011;226;48.606;9.096;2023-02-15T03:33:03;8.43;;;4.40;;
479;SDS011;226;48.606;9.096;2023-02-15T03:35:36;8.53;;;3.43;;
479;SDS011;226;48.606;9.096;2023-02-15T03:38:10;5.17;;;4.77;;
479;SDS011;226;48.606;9.096;2023-02-15T03:40:42;6.60;;;5.83;;
479;SDS011;226;48.606;9.096;2023-02-15T03:43:32;6.80;;;5.57;;
479;SDS011;226;48.606;9.096;2023-02-15T03:46:05;8.00;;;5.30;;
479;SDS011;226;48.606;9.096;2023-02-15T03:48:36;3.27;;;3.00;;
479;SDS011;226;48.606;9.096;2023-02-15T03:51:10;13.00;;;6.67;;
479;SDS011;226;48.606;9.096;2023-02-15T03:53:59;8.27;;;7.53;;
479;SDS011;226;48.606;9.096;2023-02-15T03:56:30;5.20;;;5.00;;
479;SDS011;226;48.606;9.096;2023-02-15T03:59:00;12.50;;;9.10;;
479;SDS011;226;48.606;9.096;2023-02-15T04:01:47;9.33;;;5.00;;
479;SDS011;226;48.606;9.096;2023-02-15T04:04:29;6.80;;;6.20;;
479;SDS011;226;48.606;9.096;2023-02-15T04:07:02;9.43;;;4.70;;
479;SDS011;226;48.606;9.096;2023-02-15T04:09:32;6.63;;;6.23;;
479;SDS011;226;48.606;9.096;2023-02-15T04:12:17;15.20;;;8.07;;
479;SDS011;226;48.606;9.096;2023-02-15T04:14:45;8.23;;;5.17;;
479;SDS011;226;48.606;9.096;2023-02-15T04:17:31;8.60;;;4.73;;
479;SDS011;226;48.606;9.096;2023-02-15T04:19:59;4.70;;;4.40;;
479;SDS011;226;48.606;9.096;2023-02-15T04:22:46;5.50;;;5.00;;
479;SDS011;226;48.606;9.096;2023-02-15T04:25:31;4.27;;;3.83;;
479;SDS011;226;48.606;9.096;2023-02-15T04:27:59;7.40;;;6.70;;
479;SDS011;226;48.606;9.096;2023-02-15T04:30:28;7.10;;;5.53;;
479;SDS011;226;48.606;9.096;2023-02-15T04:32:56;6.50;;;5.90;;
479;SDS011;226;48.606;9.096;2023-02-15T04:35:24;42.90;;;9.10;;
479;SDS011;226;48.606;9.096;2023-02-15T04:37:54;4.37;;;4.00;;
479;SDS011;226;48.606;9.096;2023-02-15T04:40:23;5.30;;;4.70;;
479;SDS011;226;48.606;9.096;2023-02-15T04:42:51;5.93;;;5.33;;
479;SDS011;226;48.606;9.096;2023-02-15T04:45:19;4.60;;;4.20;;
479;SDS011;226;48.606;9.096;2023-02-15T04:47:47;5.83;;;5.43;;
479;SDS011;226;48.606;9.096;2023-02-15T04:50:15;11.23;;;6.97;;
479;SDS011;226;48.606;9.096;2023-02-15T04:52:44;3.73;;;3.57;;
479;SDS011;226;48.606;9.096;2023-02-15T04:55:13;4.80;;;4.60;;
479;SDS011;226;48.606;9.096;2023-02-15T04:57:41;9.40;;;8.07;;
479;SDS011;226;48.606;9.096;2023-02-15T05:00:10;5.50;;;5.10;;
479;SDS011;226;48.606;9.096;2023-02-15T05:02:38;8.80;;;8.00;;
479;SDS011;226;48.606;9.096;2023-02-15T05:05:06;5.57;;;5.27;;
479;SDS011;226;48.606;9.096;2023-02-15T05:07:35;6.93;;;5.93;;
479;SDS011;226;48.606;9.096;2023-02-15T05:10:04;25.10;;;6.53;;
479;SDS011;226;48.606;9.096;2023-02-15T05:12:34;3.50;;;3.30;;
479;SDS011;226;48.606;9.096;2023-02-15T05:15:02;7.90;;;7.27;;
479;SDS011;226;48.606;9.096;2023-02-15T05:17:30;8.27;;;6.87;;
479;SDS011;226;48.606;9.096;2023-02-15T05:19:58;8.50;;;6.50;;
479;SDS011;226;48.606;9.096;2023-02-15T05:22:27;18.63;;;4.93;;
479;SDS011;226;48.606;9.096;2023-02-15T05:24:55;11.77;;;6.33;;
479;SDS011;226;48.606;9.096;2023-02-15T05:27:42;4.03;;;3.83;;
479;SDS011;226;48.606;9.096;2023-02-15T05:30:30;3.50;;;3.40;;
479;SDS011;226;48.606;9.096;2023-02-15T05:32:58;14.20;;;8.73;;
479;SDS011;226;48.606;9.096;2023-02-15T05:35:27;8.87;;;8.20;;
479;SDS011;226;48.606;9.096;2023-02-15T05:37:55;6.80;;;5.83;;
479;SDS011;226;48.606;9.096;2023-02-15T05:40:23;17.57;;;6.40;;
479;SDS011;226;48.606;9.096;2023-02-15T05:42:52;18.00;;;10.40;;
479;SDS011;226;48.606;9.096;2023-02-15T05:45:20;27.43;;;9.43;;
479;SDS011;226;48.606;9.096;2023-02-15T05:47:48;6.73;;;5.47;;
479;SDS011;226;48.606;9.096;2023-02-15T05:50:16;7.77;;;6.30;;
479;SDS011;226;48.606;9.096;2023-02-15T05:52:45;4.90;;;4.17;;
479;SDS011;226;48.606;9.096;2023-02-15T05:55:16;10.67;;;5.73;;
479;SDS011;226;48.606;9.096;2023-02-15T05:57:44;4.53;;;4.33;;
479;SDS011;226;48.606;9.096;2023-02-15T06:00:14;16.13;;;8.70;;
479;SDS011;226;48.606;9.096;2023-02-15T06:02:43;13.13;;;7.70;;
479;SDS011;226;48.606;9.096;2023-02-15T06:05:11;21.77;;;9.33;;
479;SDS011;226;48.606;9.096;2023-02-15T06:07:39;8.87;;;7.93;;
479;SDS011;226;48.606;9.096;2023-02-15T06:10:10;6.30;;;5.80;;
479;SDS011;226;48.606;9.096;2023-02-15T06:12:38;5.23;;;5.00;;
479;SDS011;226;48.606;9.096;2023-02-15T06:15:07;5.40;;;5.10;;
479;SDS011;226;48.606;9.096;2023-02-15T06:17:37;10.37;;;7.27;;
479;SDS011;226;48.606;9.096;2023-02-15T06:20:05;5.20;;;4.70;;
479;SDS011;226;48.606;9.096;2023-02-15T06:22:34;8.97;;;8.07;;
479;SDS011;226;48.606;9.096;2023-02-15T06:25:03;7.57;;;6.87;;
479;SDS011;226;48.606;9.096;2023-02-15T06:27:31;6.80;;;6.30;;
479;SDS011;226;48.606;9.096;2023-02-15T06:29:59;5.20;;;4.90;;
479;SDS011;226;48.606;9.096;2023-02-15T06:32:27;20.40;;;7.97;;
479;SDS011;226;48.606;9.096;2023-02-15T06:34:57;6.10;;;5.70;;
479;SDS011;226;48.606;9.096;2023-02-15T06:37:25;6.03;;;5.67;;
479;SDS011;226;48.606;9.096;2023-02-15T06:39:53;8.53;;;5.40;;
479;SDS011;226;48.606;9.096;2023-02-15T06:42:22;7.67;;;6.97;;
479;SDS011;226;48.606;9.096;2023-02-15T06:44:50;6.30;;;4.80;;
479;SDS011;226;48.606;9.096;2023-02-15T06:47:18;5.77;;;4.40;;
479;SDS011;226;48.606;9.096;2023-02-15T06:49:46;6.53;;;5.90;;
479;SDS011;226;48.606;9.096;2023-02-15T06:52:15;7.90;;;5.60;;
479;SDS011;226;48.606;9.096;2023-02-15T06:54:43;7.43;;;6.73;;
479;SDS011;226;48.606;9.096;2023-02-15T06:57:11;6.53;;;6.03;;
479;SDS011;226;48.606;9.096;2023-02-15T06:59:40;12.47;;;7.10;;
479;SDS011;226;48.606;9.096;2023-02-15T07:02:08;5.07;;;4.67;;
479;SDS011;226;48.606;9.096;2023-02-15T07:04:38;5.23;;;5.03;;
479;SDS011;226;48.606;9.096;2023-02-15T07:07:07;5.50;;;5.30;;
479;SDS011;226;48.606;9.096;2023-02-15T07:09:38;5.93;;;5.40;;
479;SDS011;226;48.606;9.096;2023-02-15T07:12:07;5.97;;;5.67;;
479;SDS011;226;48.606;9.096;2023-02-15T07:14:52;11.93;;;6.03;;
479;SDS011;226;48.606;9.096;2023-02-15T07:17:20;6.20;;;5.70;;
479;SDS011;226;48.606;9.096;2023-02-15T07:20:04;5.43;;;4.40;;
479;SDS011;226;48.606;9.096;2023-02-15T07:22:34;6.37;;;5.77;;
479;SDS011;226;48.606;9.096;2023-02-15T07:25:05;5.13;;;4.70;;
479;SDS011;226;48.606;9.096;2023-02-15T07:27:35;17.77;;;8.30;;
479;SDS011;226;48.606;9.096;2023-02-15T07:30:04;6.77;;;6.13;;
479;SDS011;226;48.606;9.096;2023-02-15T07:32:33;8.10;;;7.27;;
479;SDS011;226;48.606;9.096;2023-02-15T07:35:02;11.27;;;5.87;;
479;SDS011;226;48.606;9.096;2023-02-15T07:37:30;17.30;;;9.47;;
479;SDS011;226;48.606;9.096;2023-02-15T07:39:58;7.10;;;5.57;;
479;SDS011;226;48.606;9.096;2023-02-15T07:42:27;8.07;;;7.33;;
479;SDS011;226;48.606;9.096;2023-02-15T07:44:58;15.33;;;9.97;;
479;SDS011;226;48.606;9.096;2023-02-15T07:47:26;8.27;;;7.40;;
479;SDS011;226;48.606;9.096;2023-02-15T07:49:54;9.73;;;8.80;;
479;SDS011;226;48.606;9.096;2023-02-15T07:52:22;11.73;;;7.10;;
479;SDS011;226;48.606;9.096;2023-02-15T07:54:50;11.17;;;10.10;;
479;SDS011;226;48.606;9.096;2023-02-15T07:57:18;11.03;;;6.60;;
479;SDS011;226;48.606;9.096;2023-02-15T07:59:48;10.33;;;7.60;;
479;SDS011;226;48.606;9.096;2023-02-15T08:02:16;11.70;;;10.40;;
479;SDS011;226;48.606;9.096;2023-02-15T08:04:44;14.70;;;9.27;;
479;SDS011;226;48.606;9.096;2023-02-15T08:07:12;10.80;;;7.40;;
479;SDS011;226;48.606;9.096;2023-02-15T08:09:40;21.20;;;11.60;;
479;SDS011;226;48.606;9.096;2023-02-15T08:12:08;12.83;;;11.57;;
479;SDS011;226;48.606;9.096;2023-02-15T08:14:36;15.93;;;11.53;;
479;SDS011;226;48.606;9.096;2023-02-15T08:17:05;19.23;;;10.80;;
479;SDS011;226;48.606;9.096;2023-02-15T08:19:34;23.67;;;15.50;;
479;SDS011;226;48.606;9.096;2023-02-15T08:22:02;17.83;;;13.10;;
479;SDS011;226;48.606;9.096;2023-02-15T08:24:32;19.00;;;10.73;;
479;SDS011;226;48.606;9.096;2023-02-15T08:27:03;20.13;;;15.50;;
479;SDS011;226;48.606;9.096;2023-02-15T08:29:32;21.97;;;13.67;;
479;SDS011;226;48.606;9.096;2023-02-15T08:32:02;17.77;;;10.63;;
479;SDS011;226;48.606;9.096;2023-02-15T08:34:35;15.67;;;11.20;;
479;SDS011;226;48.606;9.096;2023-02-15T08:37:05;17.30;;;8.90;;
479;SDS011;226;48.606;9.096;2023-02-15T08:39:34;13.50;;;12.30;;
479;SDS011;226;48.606;9.096;2023-02-15T08:42:02;15.07;;;9.20;;
479;SDS011;226;48.606;9.096;2023-02-15T08:44:30;15.97;;;9.87;;
479;SDS011;226;48.606;9.096;2023-02-15T08:46:58;38.23;;;13.60;;
479;SDS011;226;48.606;9.096;2023-02-15T08:49:30;15.00;;;11.00;;
479;SDS011;226;48.606;9.096;2023-02-15T08:51:59;24.03;;;12.50;;
479;SDS011;226;48.606;9.096;2023-02-15T08:54:28;16.93;;;13.23;;
479;SDS011;226;48.606;9.096;2023-02-15T08:56:56;25.10;;;11.23;;
479;SDS011;226;48.606;9.096;2023-02-15T08:59:24;23.67;;;10.70;;
479;SDS011;226;48.606;9.096;2023-02-15T09:01:53;17.87;;;8.77;;
479;SDS011;226;48.606;9.096;2023-02-15T09:04:22;18.03;;;12.20;;
479;SDS011;226;48.606;9.096;2023-02-15T09:06:50;31.97;;;12.90;;
479;SDS011;226;48.606;9.096;2023-02-15T09:09:20;18.23;;;11.27;;
479;SDS011;226;48.606;9.096;2023-02-15T09:11:49;14.87;;;10.43;;
479;SDS011;226;48.606;9.096;2023-02-15T09:14:23;26.07;;;9.60;;
479;SDS011;226;48.606;9.096;2023-02-15T09:16:52;28.63;;;10.43;;
479;SDS011;226;48.606;9.096;2023-02-15T09:19:22;16.37;;;9.70;;
479;SDS011;226;48.606;9.096;2023-02-15T09:21:50;23.47;;;13.87;;
479;SDS011;226;48.606;9.096;2023-02-15T09:24:20;24.33;;;15.07;;
479;SDS011;226;48.606;9.096;2023-02-15T09:26:48;18.90;;;11.27;;
479;SDS011;226;48.606;9.096;2023-02-15T09:29:17;14.63;;;10.03;;
479;SDS011;226;48.606;9.096;2023-02-15T09:31:47;22.77;;;11.73;;
479;SDS011;226;48.606;9.096;2023-02-15T09:34:18;19.50;;;10.67;;
479;SDS011;226;48.606;9.096;2023-02-15T09:36:47;17.57;;;11.50;;
479;SDS011;226;48.606;9.096;2023-02-15T09:39:17;21.83;;;10.40;;
479;SDS011;226;48.606;9.096;2023-02-15T09:41:54;23.90;;;9.97;;
479;SDS011;226;48.606;9.096;2023-02-15T09:44:43;22.83;;;10.60;;
479;SDS011;226;48.606;9.096;2023-02-15T09:47:31;20.13;;;10.60;;
479;SDS011;226;48.606;9.096;2023-02-15T09:50:16;16.40;;;10.27;;
479;SDS011;226;48.606;9.096;2023-02-15T09:52:56;19.70;;;7.30;;
479;SDS011;226;48.606;9.096;2023-02-15T09:55:38;15.23;;;9.20;;
479;SDS011;226;48.606;9.096;2023-02-15T09:58:18;10.90;;;7.50;;
479;SDS011;226;48.606;9.096;2023-02-15T10:00:55;10.67;;;6.07;;
479;SDS011;226;48.606;9.096;2023-02-15T10:03:36;11.17;;;7.70;;
479;SDS011;226;48.606;9.096;2023-02-15T10:06:24;7.63;;;5.90;;
479;SDS011;226;48.606;9.096;2023-02-15T10:09:20;12.70;;;6.30;;
479;SDS011;226;48.606;9.096;2023-02-15T10:12:04;11.30;;;6.67;;
479;SDS011;226;48.606;9.096;2023-02-15T10:17:42;7.73;;;5.63;;
479;SDS011;226;48.606;9.096;2023-02-15T10:20:22;6.70;;;5.03;;
479;SDS011;226;48.606;9.096;2023-02-15T10:23:03;12.17;;;5.87;;
479;SDS011;226;48.606;9.096;2023-02-15T10:25:49;5.10;;;4.53;;
479;SDS011;226;48.606;9.096;2023-02-15T10:28:26;9.37;;;4.20;;
479;SDS011;226;48.606;9.096;2023-02-15T10:31:01;14.33;;;6.17;;
479;SDS011;226;48.606;9.096;2023-02-15T10:33:38;9.23;;;4.20;;
479;SDS011;226;48.606;9.096;2023-02-15T10:36:12;6.63;;;4.80;;
479;SDS011;226;48.606;9.096;2023-02-15T10:38:52;7.30;;;3.57;;
479;SDS011;226;48.606;9.096;2023-02-15T10:41:32;5.00;;;3.20;;
479;SDS011;226;48.606;9.096;2023-02-15T10:44:11;6.73;;;4.43;;
479;SDS011;226;48.606;9.096;2023-02-15T10:47:04;6.87;;;4.70;;
479;SDS011;226;48.606;9.096;2023-02-15T10:49:58;5.37;;;3.73;;
479;SDS011;226;48.606;9.096;2023-02-15T10:53:03;8.90;;;4.43;;
479;SDS011;226;48.606;9.096;2023-02-15T10:55:42;6.23;;;3.80;;
479;SDS011;226;48.606;9.096;2023-02-15T10:58:20;2.93;;;2.60;;
479;SDS011;226;48.606;9.096;2023-02-15T11:00:58;9.80;;;4.97;;
479;SDS011;226;48.606;9.096;2023-02-15T11:03:42;15.03;;;3.93;;
479;SDS011;226;48.606;9.096;2023-02-15T11:06:32;3.10;;;2.63;;
479;SDS011;226;48.606;9.096;2023-02-15T11:09:04;4.27;;;3.70;;
479;SDS011;226;48.606;9.096;2023-02-15T11:11:39;2.30;;;2.10;;
479;SDS011;226;48.606;9.096;2023-02-15T11:14:12;5.40;;;3.47;;
479;SDS011;226;48.606;9.096;2023-02-15T11:16:47;8.23;;;2.57;;
479;SDS011;226;48.606;9.096;2023-02-15T11:19:21;7.30;;;4.20;;
479;SDS011;226;48.606;9.096;2023-02-15T11:21:54;5.50;;;3.50;;
479;SDS011;226;48.606;9.096;2023-02-15T11:24:26;7.97;;;4.47;;
479;SDS011;226;48.606;9.096;2023-02-15T11:26:57;13.37;;;4.50;;
479;SDS011;226;48.606;9.096;2023-02-15T11:29:31;7.13;;;4.40;;
479;SDS011;226;48.606;9.096;2023-02-15T11:32:03;6.00;;;4.50;;
479;SDS011;226;48.606;9.096;2023-02-15T11:34:47;9.37;;;4.27;;
479;SDS011;226;48.606;9.096;2023-02-15T11:37:18;5.13;;;3.20;;
479;SDS011;226;48.606;9.096;2023-02-15T11:39:51;8.30;;;4.20;;
479;SDS011;226;48.606;9.096;2023-02-15T11:42:21;13.83;;;4.53;;
479;SDS011;226;48.606;9.096;2023-02-15T11:44:55;6.90;;;3.20;;
479;SDS011;226;48.606;9.096;2023-02-15T11:47:29;8.03;;;4.27;;
479;SDS011;226;48.606;9.096;2023-02-15T11:49:59;9.70;;;4.00;;
479;SDS011;226;48.606;9.096;2023-02-15T11:52:27;3.40;;;2.30;;
479;SDS011;226;48.606;9.096;2023-02-15T11:54:55;4.43;;;2.80;;
479;SDS011;226;48.606;9.096;2023-02-15T11:57:25;3.63;;;2.93;;
479;SDS011;226;48.606;9.096;2023-02-15T12:00:00;10.60;;;2.97;;
479;SDS011;226;48.606;9.096;2023-02-15T12:02:33;5.50;;;3.20;;
479;SDS011;226;48.606;9.096;2023-02-15T12:05:09;8.77;;;2.93;;
479;SDS011;226;48.606;9.096;2023-02-15T12:07:42;8.20;;;4.03;;
479;SDS011;226;48.606;9.096;2023-02-15T12:10:17;13.70;;;4.30;;
479;SDS011;226;48.606;9.096;2023-02-15T12:12:47;6.27;;;3.20;;
479;SDS011;226;48.606;9.096;2023-02-15T12:15:35;5.70;;;3.17;;
479;SDS011;226;48.606;9.096;2023-02-15T12:18:04;8.40;;;3.23;;
479;SDS011;226;48.606;9.096;2023-02-15T12:20:34;5.33;;;3.33;;
479;SDS011;226;48.606;9.096;2023-02-15T12:23:05;3.13;;;2.83;;
479;SDS011;226;48.606;9.096;2023-02-15T12:25:40;6.60;;;3.47;;
479;SDS011;226;48.606;9.096;2023-02-15T12:28:21;4.07;;;2.57;;
479;SDS011;226;48.606;9.096;2023-02-15T12:30:53;7.73;;;2.93;;
479;SDS011;226;48.606;9.096;2023-02-15T12:33:25;7.30;;;2.60;;
479;SDS011;226;48.606;9.096;2023-02-15T12:35:59;3.20;;;2.67;;
479;SDS011;226;48.606;9.096;2023-02-15T12:38:29;9.00;;;4.17;;
479;SDS011;226;48.606;9.096;2023-02-15T12:40:58;9.53;;;4.30;;
479;SDS011;226;48.606;9.096;2023-02-15T12:43:31;6.50;;;3.23;;
479;SDS011;226;48.606;9.096;2023-02-15T12:46:14;6.63;;;3.50;;
479;SDS011;226;48.606;9.096;2023-02-15T12:48:58;6.17;;;3.73;;
479;SDS011;226;48.606;9.096;2023-02-15T12:51:45;3.37;;;2.60;;
479;SDS011;226;48.606;9.096;2023-02-15T12:54:29;5.53;;;3.77;;
479;SDS011;226;48.606;9.096;2023-02-15T12:57:12;2.43;;;2.07;;
479;SDS011;226;48.606;9.096;2023-02-15T12:59:51;12.63;;;3.43;;
479;SDS011;226;48.606;9.096;2023-02-15T13:02:22;6.80;;;3.63;;
479;SDS011;226;48.606;9.096;2023-02-15T13:04:53;6.03;;;3.60;;
479;SDS011;226;48.606;9.096;2023-02-15T13:07:25;5.20;;;3.80;;
479;SDS011;226;48.606;9.096;2023-02-15T13:09:58;7.43;;;3.60;;
479;SDS011;226;48.606;9.096;2023-02-15T13:12:27;5.93;;;3.20;;
479;SDS011;226;48.606;9.096;2023-02-15T13:14:58;4.60;;;3.37;;
479;SDS011;226;48.606;9.096;2023-02-15T13:17:29;7.90;;;3.40;;
479;SDS011;226;48.606;9.096;2023-02-15T13:20:02;8.80;;;4.03;;
479;SDS011;226;48.606;9.096;2023-02-15T13:22:37;10.30;;;5.10;;
479;SDS011;226;48.606;9.096;2023-02-15T13:25:11;8.57;;;5.20;;
479;SDS011;226;48.606;9.096;2023-02-15T13:27:41;7.87;;;5.50;;
479;SDS011;226;48.606;9.096;2023-02-15T13:30:18;9.90;;;4.73;;
479;SDS011;226;48.606;9.096;2023-02-15T13:32:52;7.60;;;5.63;;
479;SDS011;226;48.606;9.096;2023-02-15T13:35:23;9.93;;;5.80;;
479;SDS011;226;48.606;9.096;2023-02-15T13:38:05;10.73;;;5.90;;
479;SDS011;226;48.606;9.096;2023-02-15T13:40:44;12.83;;;5.23;;
479;SDS011;226;48.606;9.096;2023-02-15T13:43:21;13.03;;;6.27;;
479;SDS011;226;48.606;9.096;2023-02-15T13:45:58;10.33;;;5.87;;
479;SDS011;226;48.606;9.096;2023-02-15T13:48:58;6.23;;;4.83;;
479;SDS011;226;48.606;9.096;2023-02-15T13:51:37;8.10;;;5.67;;
479;SDS011;226;48.606;9.096;2023-02-15T13:54:23;13.63;;;5.77;;
479;SDS011;226;48.606;9.096;2023-02-15T14:00:08;5.93;;;3.93;;
479;SDS011;226;48.606;9.096;2023-02-15T14:02:51;7.57;;;4.90;;
479;SDS011;226;48.606;9.096;2023-02-15T14:08:38;4.83;;;3.47;;
479;SDS011;226;48.606;9.096;2023-02-15T14:11:15;14.00;;;4.47;;
479;SDS011;226;48.606;9.096;2023-02-15T14:14:01;7.70;;;3.77;;
479;SDS011;226;48.606;9.096;2023-02-15T14:16:45;8.30;;;4.27;;
479;SDS011;226;48.606;9.096;2023-02-15T14:19:34;8.23;;;4.23;;
479;SDS011;226;48.606;9.096;2023-02-15T14:22:09;8.40;;;5.37;;
479;SDS011;226;48.606;9.096;2023-02-15T14:24:46;17.73;;;6.90;;
479;SDS011;226;48.606;9.096;2023-02-15T14:27:26;10.00;;;5.17;;
479;SDS011;226;48.606;9.096;2023-02-15T14:30:10;8.73;;;4.80;;
479;SDS011;226;48.606;9.096;2023-02-15T14:32:43;6.87;;;4.57;;
479;SDS011;226;48.606;9.096;2023-02-15T14:35:16;9.97;;;5.23;;
479;SDS011;226;48.606;9.096;2023-02-15T14:37:48;10.80;;;6.10;;
479;SDS011;226;48.606;9.096;2023-02-15T14:40:24;8.60;;;5.10;;
479;SDS011;226;48.606;9.096;2023-02-15T14:43:21;7.50;;;4.67;;
479;SDS011;226;48.606;9.096;2023-02-15T14:46:00;9.47;;;5.40;;
479;SDS011;226;48.606;9.096;2023-02-15T14:48:31;10.07;;;5.00;;
479;SDS011;226;48.606;9.096;2023-02-15T14:51:05;7.27;;;5.17;;
479;SDS011;226;48.606;9.096;2023-02-15T14:53:34;10.30;;;7.00;;
479;SDS011;226;48.606;9.096;2023-02-15T14:56:05;4.60;;;4.00;;
479;SDS011;226;48.606;9.096;2023-02-15T14:58:55;8.33;;;4.70;;
479;SDS011;226;48.606;9.096;2023-02-15T15:01:39;9.00;;;5.00;;
479;SDS011;226;48.606;9.096;2023-02-15T15:04:09;11.20;;;6.03;;
479;SDS011;226;48.606;9.096;2023-02-15T15:06:41;8.93;;;4.30;;
479;SDS011;226;48.606;9.096;2023-02-15T15:09:11;13.83;;;5.60;;
479;SDS011;226;48.606;9.096;2023-02-15T15:11:46;10.43;;;5.30;;
479;SDS011;226;48.606;9.096;2023-02-15T15:17:10;8.13;;;5.73;;
479;SDS011;226;48.606;9.096;2023-02-15T15:22:26;6.93;;;4.40;;
479;SDS011;226;48.606;9.096;2023-02-15T15:24:56;4.17;;;3.30;;
479;SDS011;226;48.606;9.096;2023-02-15T15:27:38;5.80;;;3.73;;
479;SDS011;226;48.606;9.096;2023-02-15T15:33:36;9.13;;;4.30;;
479;SDS011;226;48.606;9.096;2023-02-15T15:36:38;8.27;;;3.70;;
479;SDS011;226;48.606;9.096;2023-02-15T15:42:57;7.50;;;5.27;;
479;SDS011;226;48.606;9.096;2023-02-15T15:45:49;15.33;;;7.17;;
479;SDS011;226;48.606;9.096;2023-02-15T15:48:26;8.97;;;6.53;;
479;SDS011;226;48.606;9.096;2023-02-15T15:50:59;9.07;;;6.53;;
479;SDS011;226;48.606;9.096;2023-02-15T15:53:32;14.50;;;6.20;;
479;SDS011;226;48.606;9.096;2023-02-15T15:56:10;11.10;;;6.30;;
479;SDS011;226;48.606;9.096;2023-02-15T15:58:43;10.97;;;5.23;;
479;SDS011;226;48.606;9.096;2023-02-15T16:01:13;9.50;;;5.57;;
479;SDS011;226;48.606;9.096;2023-02-15T16:03:49;14.67;;;6.50;;
479;SDS011;226;48.606;9.096;2023-02-15T16:06:36;13.13;;;5.55;;
479;SDS011;226;48.606;9.096;2023-02-15T16:09:12;11.77;;;7.37;;
479;SDS011;226;48.606;9.096;2023-02-15T16:11:46;14.80;;;5.90;;
479;SDS011;226;48.606;9.096;2023-02-15T16:14:17;9.00;;;5.07;;
479;SDS011;226;48.606;9.096;2023-02-15T16:16:53;13.13;;;5.93;;
479;SDS011;226;48.606;9.096;2023-02-15T16:19:24;10.90;;;5.60;;
479;SDS011;226;48.606;9.096;2023-02-15T16:21:57;31.27;;;4.93;;
479;SDS011;226;48.606;9.096;2023-02-15T16:24:34;8.13;;;5.20;;
479;SDS011;226;48.606;9.096;2023-02-15T16:27:28;11.73;;;6.20;;
479;SDS011;226;48.606;9.096;2023-02-15T16:30:18;10.23;;;4.30;;
479;SDS011;226;48.606;9.096;2023-02-15T16:32:52;4.10;;;3.80;;
479;SDS011;226;48.606;9.096;2023-02-15T16:35:22;17.73;;;4.10;;
479;SDS011;226;48.606;9.096;2023-02-15T16:37:52;8.17;;;5.97;;
479;SDS011;226;48.606;9.096;2023-02-15T16:40:40;14.63;;;7.93;;